createdAt,value
2023-05-12T00:00:26.737Z,99.90
2023-05-12T00:02:55.164Z,99.90
2023-05-12T00:05:22.306Z,99.90
2023-05-12T00:07:49.202Z,99.90
2023-05-12T00:10:16.156Z,99.90
2023-05-12T00:12:43.081Z,99.90
2023-05-12T00:15:10.622Z,99.90
2023-05-12T00:17:37.546Z,99.90
2023-05-12T00:20:07.107Z,99.90
2023-05-12T00:22:33.945Z,99.90
2023-05-12T00:25:00.690Z,99.90
2023-05-12T00:27:27.596Z,99.90
2023-05-12T00:29:54.407Z,99.90
2023-05-12T00:32:21.195Z,99.90
2023-05-12T00:34:49.099Z,99.90
2023-05-12T00:37:17.320Z,99.90
2023-05-12T00:39:44.218Z,99.90
2023-05-12T00:42:11.997Z,99.90
2023-05-12T00:44:38.833Z,99.90
2023-05-12T00:47:06.411Z,99.90
2023-05-12T00:49:33.324Z,99.90
2023-05-12T00:52:00.147Z,99.90
2023-05-12T00:54:28.939Z,99.90
2023-05-12T00:56:55.855Z,99.90
2023-05-12T00:59:22.665Z,99.90
2023-05-12T01:01:50.083Z,99.90
2023-05-12T01:04:17.120Z,99.90
2023-05-12T01:06:55.348Z,99.90
2023-05-12T01:09:22.337Z,99.90
2023-05-12T01:11:50.544Z,99.90
2023-05-12T01:14:17.351Z,99.90
2023-05-12T01:16:48.339Z,99.90
2023-05-12T01:19:38.352Z,99.90
2023-05-12T01:22:05.644Z,99.90
2023-05-12T01:24:34.588Z,99.90
2023-05-12T01:27:04.134Z,99.90
2023-05-12T01:29:32.174Z,99.90
2023-05-12T01:31:59.535Z,99.90
2023-05-12T01:34:26.490Z,99.90
2023-05-12T01:36:53.332Z,99.90
2023-05-12T01:39:20.209Z,99.90
2023-05-12T01:41:46.959Z,99.90
2023-05-12T01:44:15.168Z,99.90
2023-05-12T01:46:42.052Z,99.90
2023-05-12T01:49:08.876Z,99.90
2023-05-12T01:51:35.716Z,99.90
2023-05-12T01:54:02.582Z,99.90
2023-05-12T01:56:29.468Z,99.90
2023-05-12T01:58:56.446Z,99.90
2023-05-12T02:01:24.810Z,99.90
2023-05-12T02:03:51.728Z,99.90
2023-05-12T02:06:18.656Z,99.90
2023-05-12T02:08:45.464Z,99.90
2023-05-12T02:11:12.297Z,99.90
2023-05-12T02:13:39.078Z,99.90
2023-05-12T02:16:06.782Z,99.90
2023-05-12T02:18:35.056Z,99.90
2023-05-12T02:21:01.963Z,99.90
2023-05-12T02:23:28.801Z,99.90
2023-05-12T02:25:55.686Z,99.90
2023-05-12T02:28:22.645Z,99.90
2023-05-12T02:30:50.724Z,99.90
2023-05-12T02:33:18.241Z,99.90
2023-05-12T02:35:46.505Z,99.90
2023-05-12T02:38:13.543Z,99.90
2023-05-12T02:40:40.370Z,99.90
2023-05-12T02:43:07.300Z,99.90
2023-05-12T02:45:34.401Z,99.90
2023-05-12T02:48:01.286Z,99.90
2023-05-12T02:50:28.169Z,99.90
2023-05-12T02:52:56.453Z,99.90
2023-05-12T02:55:23.545Z,99.90
2023-05-12T02:57:50.364Z,99.90
2023-05-12T03:00:17.743Z,99.90
2023-05-12T03:02:44.679Z,99.90
2023-05-12T03:05:11.512Z,99.90
2023-05-12T03:07:38.437Z,99.90
2023-05-12T03:10:08.435Z,99.90
2023-05-12T03:12:35.368Z,99.90
2023-05-12T03:15:02.476Z,99.90
2023-05-12T03:17:29.389Z,99.90
2023-05-12T03:19:56.315Z,99.90
2023-05-12T03:22:23.260Z,99.90
2023-05-12T03:24:50.395Z,99.90
2023-05-12T03:27:18.719Z,99.90
2023-05-12T03:29:45.537Z,99.90
2023-05-12T03:32:12.363Z,99.90
2023-05-12T03:34:39.207Z,99.90
2023-05-12T03:37:06.008Z,99.90
2023-05-12T03:39:32.844Z,99.90
2023-05-12T03:41:59.750Z,99.90
2023-05-12T03:44:28.007Z,99.90
2023-05-12T03:46:54.861Z,99.90
2023-05-12T03:49:21.807Z,99.90
2023-05-12T03:51:48.625Z,99.90
2023-05-12T03:54:15.505Z,99.90
2023-05-12T03:56:42.376Z,99.90
2023-05-12T03:59:09.237Z,99.90
2023-05-12T04:01:37.568Z,99.90
2023-05-12T04:04:04.854Z,99.90
2023-05-12T04:06:31.812Z,99.90
2023-05-12T04:08:59.145Z,99.90
2023-05-12T04:11:25.997Z,99.90
2023-05-12T04:13:52.809Z,99.90
2023-05-12T04:16:19.876Z,99.90
2023-05-12T04:18:48.209Z,99.90
2023-05-12T04:21:15.178Z,99.90
2023-05-12T04:23:42.000Z,99.90
2023-05-12T04:26:08.774Z,99.90
2023-05-12T04:28:35.628Z,99.90
2023-05-12T04:31:03.011Z,99.90
2023-05-12T04:33:29.859Z,99.90
2023-05-12T04:35:58.372Z,99.90
2023-05-12T04:38:25.444Z,99.90
2023-05-12T04:40:52.315Z,99.90
2023-05-12T04:45:55.429Z,99.90
2023-05-12T04:48:22.372Z,99.90
2023-05-12T04:50:49.276Z,99.90
2023-05-12T04:53:17.738Z,99.90
2023-05-12T04:55:44.660Z,99.90
2023-05-12T04:58:11.851Z,99.90
2023-05-12T05:00:38.924Z,99.90
2023-05-12T05:03:06.176Z,99.90
2023-05-12T05:05:33.273Z,99.90
2023-05-12T05:08:00.930Z,99.90
2023-05-12T05:10:29.410Z,99.90
2023-05-12T05:12:56.210Z,99.90
2023-05-12T05:15:23.148Z,99.90
2023-05-12T05:17:50.237Z,99.90
2023-05-12T05:20:17.472Z,99.90
2023-05-12T05:22:44.321Z,99.90
2023-05-12T05:25:11.122Z,99.90
2023-05-12T05:27:39.306Z,99.90
2023-05-12T05:30:07.569Z,99.90
2023-05-12T05:32:35.380Z,99.90
2023-05-12T05:35:02.197Z,99.90
2023-05-12T05:37:29.028Z,99.90
2023-05-12T05:39:55.785Z,99.90
2023-05-12T05:42:22.542Z,99.90
2023-05-12T05:44:50.736Z,99.90
2023-05-12T05:47:17.575Z,99.90
2023-05-12T05:49:44.652Z,99.90
2023-05-12T05:52:11.428Z,99.90
2023-05-12T05:54:38.329Z,99.90
2023-05-12T05:57:05.334Z,99.90
2023-05-12T05:59:32.282Z,99.90
2023-05-12T06:02:00.535Z,99.90
2023-05-12T06:04:27.338Z,99.90
2023-05-12T06:06:54.212Z,99.90
2023-05-12T06:09:21.094Z,99.90
2023-05-12T06:11:47.816Z,99.90
2023-05-12T06:14:20.901Z,99.90
2023-05-12T06:16:47.714Z,99.90
2023-05-12T06:19:16.019Z,99.90
2023-05-12T06:21:42.901Z,99.90
2023-05-12T06:24:09.722Z,99.90
2023-05-12T06:26:37.113Z,99.90
2023-05-12T06:29:06.657Z,99.90
2023-05-12T06:31:33.851Z,99.90
2023-05-12T06:34:00.796Z,99.90
2023-05-12T06:36:29.318Z,99.90
2023-05-12T06:38:56.559Z,99.90
2023-05-12T06:41:23.377Z,99.90
2023-05-12T06:43:50.285Z,99.90
2023-05-12T06:46:17.157Z,99.90
2023-05-12T06:48:44.094Z,99.90
2023-05-12T06:51:11.048Z,99.90
2023-05-12T06:53:39.210Z,99.90
2023-05-12T06:56:06.217Z,99.90
2023-05-12T06:58:33.541Z,99.90
2023-05-12T07:01:01.163Z,99.90
2023-05-12T07:03:31.988Z,99.90
2023-05-12T07:05:59.388Z,99.90
2023-05-12T07:08:26.779Z,99.90
2023-05-12T07:10:55.118Z,99.90
2023-05-12T07:13:22.649Z,99.90
2023-05-12T07:15:49.643Z,99.90
2023-05-12T07:18:16.577Z,99.90
2023-05-12T07:20:43.363Z,99.90
2023-05-12T07:23:10.341Z,99.90
2023-05-12T07:25:37.238Z,99.90
2023-05-12T07:28:05.714Z,99.90
2023-05-12T07:30:32.616Z,99.90
2023-05-12T07:32:59.452Z,99.90
2023-05-12T07:35:26.425Z,99.90
2023-05-12T07:37:53.354Z,99.40
2023-05-12T07:40:20.295Z,98.50
2023-05-12T07:42:47.422Z,97.80
2023-05-12T07:45:15.734Z,97.50
2023-05-12T07:47:43.483Z,96.60
2023-05-12T07:50:10.317Z,95.20
2023-05-12T07:52:37.144Z,94.20
2023-05-12T07:55:04.243Z,94.00
2023-05-12T07:57:30.980Z,93.50
2023-05-12T07:59:59.557Z,93.70
2023-05-12T08:02:27.915Z,93.80
2023-05-12T08:04:54.772Z,94.90
2023-05-12T08:07:21.655Z,94.70
2023-05-12T08:09:48.493Z,95.00
2023-05-12T08:12:15.251Z,95.50
2023-05-12T08:14:42.326Z,95.80
2023-05-12T08:17:09.224Z,95.90
2023-05-12T08:19:37.362Z,96.00
2023-05-12T08:22:04.569Z,96.30
2023-05-12T08:24:31.396Z,96.60
2023-05-12T08:26:58.402Z,96.00
2023-05-12T08:29:25.309Z,96.70
2023-05-12T08:31:52.229Z,96.80
2023-05-12T08:34:19.050Z,97.10
2023-05-12T08:36:47.335Z,97.00
2023-05-12T08:39:14.704Z,97.30
2023-05-12T08:41:44.072Z,97.20
2023-05-12T08:44:12.157Z,97.10
2023-05-12T08:46:39.364Z,97.40
2023-05-12T08:49:09.691Z,97.60
2023-05-12T08:51:38.043Z,97.30
2023-05-12T08:54:08.985Z,96.90
2023-05-12T08:59:09.298Z,96.10
2023-05-12T09:01:37.031Z,94.90
2023-05-12T09:04:05.107Z,94.00
2023-05-12T09:06:32.526Z,93.30
2023-05-12T09:08:59.946Z,93.30
2023-05-12T09:11:28.093Z,92.70
2023-05-12T09:14:00.255Z,92.40
2023-05-12T09:16:31.320Z,92.20
2023-05-12T09:18:59.152Z,92.00
2023-05-12T09:21:27.079Z,92.20
2023-05-12T09:23:55.633Z,91.80
2023-05-12T09:26:23.907Z,91.60
2023-05-12T09:28:53.563Z,91.80
2023-05-12T09:31:21.540Z,91.70
2023-05-12T09:33:48.935Z,90.80
2023-05-12T09:36:17.887Z,90.60
2023-05-12T09:38:45.137Z,90.40
2023-05-12T09:41:12.095Z,89.90
2023-05-12T09:43:45.266Z,88.90
2023-05-12T09:46:13.657Z,86.80
2023-05-12T09:48:40.549Z,86.60
2023-05-12T09:51:10.260Z,85.10
2023-05-12T09:53:41.629Z,83.00
2023-05-12T09:56:08.576Z,75.70
2023-05-12T09:58:36.805Z,75.70
2023-05-12T10:01:18.297Z,76.00
2023-05-12T10:03:52.529Z,76.90
2023-05-12T10:06:24.908Z,77.10
2023-05-12T10:08:58.008Z,77.80
2023-05-12T10:11:25.682Z,78.70
2023-05-12T10:13:53.199Z,79.60
2023-05-12T10:16:21.391Z,80.30
2023-05-12T10:18:50.804Z,80.60
2023-05-12T10:21:18.453Z,82.00
2023-05-12T10:23:46.756Z,83.00
2023-05-12T10:26:14.415Z,83.30
2023-05-12T10:28:41.479Z,83.30
2023-05-12T10:31:09.895Z,82.60
2023-05-12T10:33:36.773Z,82.20
2023-05-12T10:36:15.952Z,80.40
2023-05-12T10:38:42.715Z,79.50
2023-05-12T10:41:09.518Z,79.20
2023-05-12T10:43:40.675Z,77.60
2023-05-12T10:46:09.086Z,75.70
2023-05-12T10:48:37.306Z,73.30
2023-05-12T10:51:09.583Z,71.20
2023-05-12T10:53:48.712Z,70.60
2023-05-12T10:56:25.196Z,69.50
2023-05-12T10:59:14.433Z,67.00
2023-05-12T11:01:43.929Z,66.80
2023-05-12T11:04:15.780Z,65.90
2023-05-12T11:06:46.990Z,64.10
2023-05-12T11:09:15.554Z,62.70
2023-05-12T11:11:45.507Z,63.30
2023-05-12T11:14:14.926Z,63.70
2023-05-12T11:16:50.740Z,64.30
2023-05-12T11:19:19.189Z,64.30
2023-05-12T11:21:48.440Z,64.60
2023-05-12T11:24:15.946Z,64.30
2023-05-12T11:26:43.172Z,64.80
2023-05-12T11:29:10.271Z,65.80
2023-05-12T11:31:38.271Z,66.80
2023-05-12T11:34:12.640Z,67.30
2023-05-12T11:36:41.581Z,68.10
2023-05-12T11:39:16.377Z,68.70
2023-05-12T11:41:43.663Z,69.40
2023-05-12T11:44:17.922Z,70.10
2023-05-12T11:46:55.805Z,70.60
2023-05-12T11:49:22.878Z,69.70
2023-05-12T11:51:52.526Z,69.40
2023-05-12T11:54:21.603Z,70.20
2023-05-12T11:56:49.039Z,70.20
2023-05-12T11:59:26.458Z,69.80
2023-05-12T12:01:53.950Z,69.50
2023-05-12T12:04:31.976Z,68.90
2023-05-12T12:06:58.828Z,68.90
2023-05-12T12:09:33.009Z,68.10
2023-05-12T12:12:00.568Z,67.30
2023-05-12T12:19:44.671Z,67.90
2023-05-12T12:22:11.834Z,67.60
2023-05-12T12:24:40.001Z,67.20
2023-05-12T12:27:06.777Z,65.40
2023-05-12T12:29:33.632Z,64.70
2023-05-12T12:32:00.447Z,63.00
2023-05-12T12:34:27.261Z,63.60
2023-05-12T12:36:54.157Z,64.20
2023-05-12T12:39:20.906Z,64.90
2023-05-12T12:41:49.220Z,66.30
2023-05-12T12:44:15.996Z,66.80
2023-05-12T12:46:42.765Z,67.20
2023-05-12T12:49:09.661Z,67.60
2023-05-12T12:51:45.553Z,68.70
2023-05-12T12:54:13.347Z,69.70
2023-05-12T12:56:40.190Z,70.20
2023-05-12T12:59:08.421Z,69.90
2023-05-12T13:01:35.484Z,69.40
2023-05-12T13:04:02.309Z,68.20
2023-05-12T13:06:29.044Z,67.10
2023-05-12T13:08:55.877Z,66.20
2023-05-12T13:11:22.664Z,66.50
2023-05-12T13:13:49.418Z,66.70
2023-05-12T13:16:17.620Z,65.90
2023-05-12T13:18:44.867Z,65.10
2023-05-12T13:21:11.735Z,65.20
2023-05-12T13:23:38.505Z,64.90
2023-05-12T13:26:05.366Z,65.00
2023-05-12T13:28:32.139Z,64.80
2023-05-12T13:30:59.175Z,65.50
2023-05-12T13:33:27.360Z,65.60
2023-05-12T13:35:54.172Z,65.20
2023-05-12T13:38:20.966Z,65.30
2023-05-12T13:40:47.732Z,65.90
2023-05-12T13:43:14.524Z,67.50
2023-05-12T13:45:41.361Z,68.80
2023-05-12T13:48:08.152Z,68.60
2023-05-12T13:50:36.464Z,68.90
2023-05-12T13:53:03.284Z,69.30
2023-05-12T13:55:30.120Z,69.40
2023-05-12T13:57:56.947Z,69.30
2023-05-12T14:00:23.812Z,69.40
2023-05-12T14:02:50.582Z,69.30
2023-05-12T14:05:17.713Z,69.90
2023-05-12T14:07:45.853Z,70.90
2023-05-12T14:10:12.663Z,71.80
2023-05-12T14:12:39.385Z,72.50
2023-05-12T14:15:21.757Z,72.80
2023-05-12T14:17:54.357Z,73.70
2023-05-12T14:20:21.175Z,74.80
2023-05-12T14:22:49.286Z,75.70
2023-05-12T14:25:16.041Z,76.00
2023-05-12T14:27:42.891Z,76.30
2023-05-12T14:30:10.337Z,77.40
2023-05-12T14:32:37.138Z,77.80
2023-05-12T14:35:04.856Z,78.20
2023-05-12T14:37:32.570Z,78.50
2023-05-12T14:40:00.736Z,79.10
2023-05-12T14:42:27.469Z,80.30
2023-05-12T14:44:54.269Z,81.50
2023-05-12T14:47:21.060Z,82.30
2023-05-12T14:49:47.789Z,83.50
2023-05-12T14:52:14.671Z,84.70
2023-05-12T14:54:41.836Z,85.80
2023-05-12T14:57:10.011Z,86.80
2023-05-12T14:59:36.768Z,88.60
2023-05-12T15:02:03.560Z,88.70
2023-05-12T15:04:30.359Z,89.80
2023-05-12T15:06:57.175Z,89.90
2023-05-12T15:09:23.941Z,90.20
2023-05-12T15:11:50.873Z,90.60
2023-05-12T15:14:19.018Z,90.70
2023-05-12T15:16:45.872Z,90.80
2023-05-12T15:19:12.862Z,90.80
2023-05-12T15:21:39.819Z,91.00
2023-05-12T15:24:06.873Z,90.60
2023-05-12T15:26:35.187Z,90.40
2023-05-12T15:29:03.576Z,90.20
2023-05-12T15:31:31.871Z,90.20
2023-05-12T15:33:58.662Z,90.20
2023-05-12T15:36:25.573Z,90.30
2023-05-12T15:38:52.561Z,90.50
2023-05-12T15:41:19.470Z,90.60
2023-05-12T15:43:46.256Z,91.00
2023-05-12T15:46:13.084Z,91.10
2023-05-12T15:48:41.247Z,91.30
2023-05-12T15:51:08.036Z,91.60
2023-05-12T15:53:34.936Z,91.80
2023-05-12T15:56:01.907Z,92.10
2023-05-12T15:58:28.852Z,92.10
2023-05-12T16:00:55.900Z,92.20
2023-05-12T16:03:22.893Z,92.20
2023-05-12T16:05:51.527Z,92.40
2023-05-12T16:08:18.442Z,92.50
2023-05-12T16:10:45.349Z,92.60
2023-05-12T16:13:12.150Z,92.70
2023-05-12T16:15:38.987Z,93.00
2023-05-12T16:18:08.384Z,93.10
2023-05-12T16:20:37.036Z,93.20
2023-05-12T16:23:05.177Z,93.40
2023-05-12T16:25:32.007Z,93.50
2023-05-12T16:27:58.891Z,93.70
2023-05-12T16:30:25.870Z,93.60
2023-05-12T16:32:52.759Z,93.70
2023-05-12T16:35:19.944Z,93.70
2023-05-12T16:37:46.994Z,93.80
2023-05-12T16:40:15.650Z,94.00
2023-05-12T16:42:42.412Z,94.20
2023-05-12T16:45:10.605Z,94.30
2023-05-12T16:47:37.595Z,94.50
2023-05-12T16:50:05.317Z,94.70
2023-05-12T16:52:32.126Z,94.90
2023-05-12T16:54:58.875Z,95.10
2023-05-12T16:57:27.074Z,95.20
2023-05-12T16:59:53.929Z,95.30
2023-05-12T17:02:20.901Z,95.50
2023-05-12T17:04:48.062Z,95.50
2023-05-12T17:07:15.008Z,95.50
2023-05-12T17:09:41.793Z,95.70
2023-05-12T17:12:08.973Z,95.90
2023-05-12T17:14:37.118Z,96.10
2023-05-12T17:17:03.938Z,96.40
2023-05-12T17:19:30.778Z,96.50
2023-05-12T17:21:57.821Z,96.50
2023-05-12T17:24:24.758Z,96.60
2023-05-12T17:26:51.559Z,96.90
2023-05-12T17:29:18.333Z,97.10
2023-05-12T17:31:46.551Z,97.60
2023-05-12T17:34:13.468Z,97.60
2023-05-12T17:36:40.274Z,97.90
2023-05-12T17:39:07.026Z,98.20
2023-05-12T17:41:33.771Z,98.40
2023-05-12T17:44:00.542Z,98.60
2023-05-12T17:46:27.370Z,98.70
2023-05-12T17:48:55.682Z,98.90
2023-05-12T17:51:22.465Z,99.30
2023-05-12T17:53:49.249Z,99.10
2023-05-12T17:56:16.004Z,99.20
2023-05-12T17:58:42.777Z,99.60
2023-05-12T18:01:09.577Z,99.90
2023-05-12T18:03:36.336Z,99.90
2023-05-12T18:06:04.577Z,99.90
2023-05-12T18:08:31.322Z,99.90
2023-05-12T18:10:58.068Z,99.90
2023-05-12T18:13:24.850Z,99.90
2023-05-12T18:15:52.150Z,99.90
2023-05-12T18:18:19.057Z,99.90
2023-05-12T18:20:45.871Z,99.90
2023-05-12T18:23:14.134Z,99.90
2023-05-12T18:25:41.166Z,99.90
2023-05-12T18:28:08.058Z,99.90
2023-05-12T18:30:34.870Z,99.90
2023-05-12T18:33:02.334Z,99.90
2023-05-12T18:35:29.590Z,99.90
2023-05-12T18:37:56.411Z,99.90
2023-05-12T18:40:24.813Z,99.90
2023-05-12T18:42:51.731Z,99.90
2023-05-12T18:45:18.931Z,99.90
2023-05-12T18:47:46.041Z,99.90
2023-05-12T18:50:12.840Z,99.90
2023-05-12T18:52:39.769Z,99.90
2023-05-12T18:55:07.903Z,99.90
2023-05-12T18:57:36.052Z,99.90
2023-05-12T19:00:03.155Z,99.90
2023-05-12T19:02:29.957Z,99.90
2023-05-12T19:04:56.831Z,99.90
2023-05-12T19:07:23.981Z,99.90
2023-05-12T19:09:50.802Z,99.90
2023-05-12T19:12:17.696Z,99.90
2023-05-12T19:14:45.932Z,99.90
2023-05-12T19:17:13.029Z,99.90
2023-05-12T19:19:40.049Z,99.90
2023-05-12T19:22:07.220Z,99.90
2023-05-12T19:24:34.425Z,99.90
2023-05-12T19:27:01.410Z,99.90
2023-05-12T19:29:28.258Z,99.90
2023-05-12T19:31:56.507Z,99.90
2023-05-12T19:34:23.379Z,99.90
2023-05-12T19:36:51.584Z,99.90
2023-05-12T19:39:18.394Z,99.90
2023-05-12T19:41:45.335Z,99.90
2023-05-12T19:44:12.241Z,99.90
2023-05-12T19:46:39.167Z,99.90
2023-05-12T19:49:07.323Z,99.90
2023-05-12T19:51:34.336Z,99.90
2023-05-12T19:54:01.190Z,99.90
2023-05-12T19:56:29.781Z,99.90
2023-05-12T19:58:56.950Z,99.90
2023-05-12T20:01:24.207Z,99.90
2023-05-12T20:03:52.462Z,99.90
2023-05-12T20:06:20.853Z,99.90
2023-05-12T20:08:47.885Z,99.90
2023-05-12T20:11:15.052Z,99.90
2023-05-12T20:13:41.931Z,99.90
2023-05-12T20:16:09.272Z,99.90
2023-05-12T20:18:36.076Z,99.90
2023-05-12T20:21:02.902Z,99.90
2023-05-12T20:23:31.148Z,99.90
2023-05-12T20:25:57.980Z,99.90
2023-05-12T20:28:25.080Z,99.90
2023-05-12T20:30:52.078Z,99.90
2023-05-12T20:33:19.146Z,99.90
2023-05-12T20:35:49.874Z,99.90
2023-05-12T20:38:16.957Z,99.90
2023-05-12T20:40:45.322Z,99.90
2023-05-12T20:43:12.507Z,99.90
2023-05-12T20:45:39.399Z,99.90
2023-05-12T20:48:06.768Z,99.90
2023-05-12T20:50:33.997Z,99.90
2023-05-12T20:53:01.228Z,99.90
2023-05-12T20:55:28.030Z,99.90
2023-05-12T20:57:56.373Z,99.90
2023-05-12T21:00:23.620Z,99.90
2023-05-12T21:02:50.558Z,99.90
2023-05-12T21:05:17.580Z,99.90
2023-05-12T21:07:44.648Z,99.90
2023-05-12T21:10:11.614Z,99.90
2023-05-12T21:12:38.648Z,99.90
2023-05-12T21:15:10.157Z,99.90
2023-05-12T21:17:36.977Z,99.90
2023-05-12T21:20:04.501Z,99.90
2023-05-12T21:22:31.275Z,99.90
2023-05-12T21:24:58.136Z,99.90
2023-05-12T21:27:25.010Z,99.90
2023-05-12T21:29:51.782Z,99.90
2023-05-12T21:32:20.195Z,99.90
2023-05-12T21:34:47.014Z,99.90
2023-05-12T21:37:13.896Z,99.90
2023-05-12T21:39:40.671Z,99.90
2023-05-12T21:42:07.543Z,99.90
2023-05-12T21:44:34.378Z,99.90
2023-05-12T21:47:01.203Z,99.90
2023-05-12T21:49:29.371Z,99.90
2023-05-12T21:51:56.620Z,99.90
2023-05-12T21:54:23.385Z,99.90
2023-05-12T21:56:50.153Z,99.90
2023-05-12T21:59:17.028Z,99.90
2023-05-12T22:01:43.920Z,99.90
2023-05-12T22:04:10.964Z,99.90
2023-05-12T22:06:39.160Z,99.90
2023-05-12T22:09:05.932Z,99.90
2023-05-12T22:11:32.756Z,99.90
2023-05-12T22:13:59.584Z,99.90
2023-05-12T22:16:38.266Z,99.90
2023-05-12T22:19:08.466Z,99.90
2023-05-12T22:21:35.325Z,99.90
2023-05-12T22:24:03.783Z,99.90
2023-05-12T22:26:30.782Z,99.90
2023-05-12T22:28:57.736Z,99.90
2023-05-12T22:31:24.733Z,99.90
2023-05-12T22:33:51.775Z,99.90
2023-05-12T22:36:18.631Z,99.90
2023-05-12T22:38:45.437Z,99.90
2023-05-12T22:41:13.581Z,99.90
2023-05-12T22:43:40.416Z,99.90
2023-05-12T22:46:07.234Z,99.90
2023-05-12T22:48:38.969Z,99.90
2023-05-12T22:51:06.430Z,99.90
2023-05-12T22:53:34.515Z,99.90
2023-05-12T22:56:01.581Z,99.90
2023-05-12T22:58:29.863Z,99.90
2023-05-12T23:00:57.628Z,99.90
2023-05-12T23:03:24.590Z,99.90
2023-05-12T23:05:51.655Z,99.90
2023-05-12T23:08:18.516Z,99.90
2023-05-12T23:10:45.282Z,99.90
2023-05-12T23:13:12.131Z,99.90
2023-05-12T23:15:40.355Z,99.90
2023-05-12T23:18:07.306Z,99.90
2023-05-12T23:20:34.193Z,99.90
2023-05-12T23:23:01.094Z,99.90
2023-05-12T23:25:28.072Z,99.90
2023-05-12T23:27:54.832Z,99.90
2023-05-12T23:30:21.963Z,99.90
2023-05-12T23:32:50.662Z,99.90
2023-05-12T23:35:17.541Z,99.90
2023-05-12T23:37:44.585Z,99.90
2023-05-12T23:40:11.956Z,99.90
2023-05-12T23:42:38.731Z,99.90
2023-05-12T23:45:06.884Z,99.90
2023-05-12T23:47:33.710Z,99.90
2023-05-12T23:50:01.953Z,99.90
2023-05-12T23:52:28.766Z,99.90
2023-05-12T23:54:55.549Z,99.90
2023-05-12T23:57:22.370Z,99.90
2023-05-12T23:59:49.330Z,99.90
